New England — V7HF3 — position and weather

sailwx.info

Track history (hours):
 
Tides and Currents Weather Stations Pressure Air Temp Water Temp Dewpoint Dewpoint Depression Visibility Wind Speed Wind Dir Waves Ship Positions

New England

Last reported at 2014-Jul-20 11:27 UTC. Time now 2014-Jul-22 18:57 UTC.
Position N 42°29' W 070°40'.

Length 182 m; draft 7.4 m.

Type: Ship. MMSI: 538002220.

Date/timePositionNaut miles runAvg speedWind from/ knotsBaromVisibWave heightAir tempDewpointWater temp
2014-Jul-20 11:27N 42°29' W 070°40'14 2.8
2014-Jul-20 06:33N 42°22' W 070°55'1312.3
2014-Jul-20 05:31N 42°29' W 070°41'  
2014-Jul-16 00:07N 41°40' W 070°41'1313.6
2014-Jul-15 23:11N 41°30' W 070°52'1013.8
2014-Jul-15 22:26N 41°24' W 071°04'1213.6
2014-Jul-15 21:33N 41°25' W 071°19'8 8.1
2014-Jul-15 20:33N 41°33' W 071°19'1212.2
2014-Jul-15 19:33N 41°45' W 071°22'3 3.0
2014-Jul-15 18:31N 41°48' W 071°24'0 0.0
2014-Jul-15 17:30N 41°48' W 071°24'0 0.0
2014-Jul-15 16:30N 41°48' W 071°24'0 0.0
2014-Jul-15 15:23N 41°48' W 071°24'0 0.0
2014-Jul-15 14:29N 41°48' W 071°24'0 0.0
2014-Jul-15 13:28N 41°48' W 071°24'0 0.0
2014-Jul-15 12:28N 41°48' W 071°24'0 0.0
2014-Jul-15 11:34N 41°48' W 071°24'0 0.0
2014-Jul-15 10:33N 41°48' W 071°24'0 0.0
2014-Jul-15 09:27N 41°48' W 071°24'0 0.0
2014-Jul-15 08:32N 41°48' W 071°24'0 0.0
2014-Jul-15 07:32N 41°48' W 071°24'0 0.0
2014-Jul-15 06:31N 41°48' W 071°24'0 0.0
2014-Jul-15 05:31N 41°48' W 071°24'0 0.0
2014-Jul-15 04:31N 41°48' W 071°24'0 0.0
2014-Jul-15 03:24N 41°48' W 071°24'0 0.0
2014-Jul-15 02:30N 41°48' W 071°24'0 0.0
2014-Jul-15 01:29N 41°48' W 071°24'0 0.0
2014-Jul-15 00:29N 41°48' W 071°24'0 0.0
2014-Jul-14 23:28N 41°48' W 071°24'0 0.0
2014-Jul-14 22:28N 41°48' W 071°24'0 0.0
2014-Jul-14 21:33N 41°48' W 071°24'0 0.0
2014-Jul-14 20:33N 41°48' W 071°24'0 0.0
2014-Jul-14 19:33N 41°48' W 071°24'0 0.0
2014-Jul-14 18:32N 41°48' W 071°24'0 0.0
2014-Jul-14 17:32N 41°48' W 071°24'0 0.0
2014-Jul-14 16:31N 41°48' W 071°24'0 0.0
2014-Jul-14 15:28N 41°48' W 071°24'0 0.0
2014-Jul-14 14:34N 41°48' W 071°24'0 0.0
2014-Jul-14 13:27N 41°48' W 071°24'0 0.0
2014-Jul-14 12:33N 41°48' W 071°24'0 0.0
2014-Jul-14 11:29N 41°48' W 071°24'0 0.0
2014-Jul-14 10:29N 41°48' W 071°24'0 0.0
2014-Jul-14 09:28N 41°48' W 071°24'0 0.0
2014-Jul-14 08:28N 41°48' W 071°24'0 0.0
2014-Jul-14 07:33N 41°48' W 071°24'0 0.0
2014-Jul-14 06:27N 41°48' W 071°24'0 0.3
2014-Jul-14 05:33N 41°48' W 071°23'8 7.8
2014-Jul-14 04:33N 41°41' W 071°19'1111.1
2014-Jul-14 03:33N 41°30' W 071°21'1111.0
2014-Jul-14 02:33N 41°19' W 071°21'1313.1
2014-Jul-14 01:33N 41°06' W 071°19'1413.6
2014-Jul-14 00:33N 40°60' W 071°03'1313.5
2014-Jul-13 23:33N 40°54' W 070°47'1313.4
2014-Jul-13 22:33N 40°48' W 070°31'1413.7
2014-Jul-13 21:33N 40°42' W 070°15'1413.7
2014-Jul-13 20:33N 40°36' W 069°59'1313.5
2014-Jul-13 19:33N 40°35' W 069°42'1313.4
2014-Jul-13 18:33N 40°35' W 069°24'1212.4
2014-Jul-13 17:33N 40°39' W 069°09'1212.4
2014-Jul-13 16:33N 40°47' W 068°57'1111.2
2014-Jul-13 15:33N 40°58' W 068°50'1110.8
2014-Jul-13 14:33N 41°08' W 068°50'10 9.7
2014-Jul-13 13:33N 41°18' W 068°49'1010.0
2014-Jul-13 12:33N 41°28' W 068°48'1010.4
2014-Jul-13 11:33N 41°38' W 068°48'9 9.1
2014-Jul-13 10:33N 41°47' W 068°44'9 9.2
2014-Jul-13 09:33N 41°55' W 068°39'10 9.8
2014-Jul-13 08:31N 42°04' W 068°32'1010.1
2014-Jul-13 07:34N 42°13' W 068°26'1010.5
2014-Jul-13 06:33N 42°22' W 068°19'11 9.9
2014-Jul-13 05:26N 42°32' W 068°12'1413.5
2014-Jul-13 04:26N 42°43' W 068°02'  
Track history (hours):
 
Tides and Currents Weather Stations Pressure Air Temp Water Temp Dewpoint Dewpoint Depression Visibility Wind Speed Wind Dir Waves Ship Positions

New England

Last reported at 2014-Jul-20 11:27 UTC. Time now 2014-Jul-22 18:57 UTC.
Position N 42°29' W 070°40'.

Length 182 m; draft 7.4 m.

Type: Ship. MMSI: 538002220.

Date/timePositionNaut miles runAvg speedWind from/ knotsBaromVisibWave heightAir tempDewpointWater temp
2014-Jul-20 11:27N 42°29' W 070°40'14 2.8
2014-Jul-20 06:33N 42°22' W 070°55'1312.3
2014-Jul-20 05:31N 42°29' W 070°41'  
2014-Jul-16 00:07N 41°40' W 070°41'1313.6
2014-Jul-15 23:11N 41°30' W 070°52'1013.8
2014-Jul-15 22:26N 41°24' W 071°04'1213.6
2014-Jul-15 21:33N 41°25' W 071°19'8 8.1
2014-Jul-15 20:33N 41°33' W 071°19'1212.2
2014-Jul-15 19:33N 41°45' W 071°22'3 3.0
2014-Jul-15 18:31N 41°48' W 071°24'0 0.0
2014-Jul-15 17:30N 41°48' W 071°24'0 0.0
2014-Jul-15 16:30N 41°48' W 071°24'0 0.0
2014-Jul-15 15:23N 41°48' W 071°24'0 0.0
2014-Jul-15 14:29N 41°48' W 071°24'0 0.0
2014-Jul-15 13:28N 41°48' W 071°24'0 0.0
2014-Jul-15 12:28N 41°48' W 071°24'0 0.0
2014-Jul-15 11:34N 41°48' W 071°24'0 0.0
2014-Jul-15 10:33N 41°48' W 071°24'0 0.0
2014-Jul-15 09:27N 41°48' W 071°24'0 0.0
2014-Jul-15 08:32N 41°48' W 071°24'0 0.0
2014-Jul-15 07:32N 41°48' W 071°24'0 0.0
2014-Jul-15 06:31N 41°48' W 071°24'0 0.0
2014-Jul-15 05:31N 41°48' W 071°24'0 0.0
2014-Jul-15 04:31N 41°48' W 071°24'0 0.0
2014-Jul-15 03:24N 41°48' W 071°24'0 0.0
2014-Jul-15 02:30N 41°48' W 071°24'0 0.0
2014-Jul-15 01:29N 41°48' W 071°24'0 0.0
2014-Jul-15 00:29N 41°48' W 071°24'0 0.0
2014-Jul-14 23:28N 41°48' W 071°24'0 0.0
2014-Jul-14 22:28N 41°48' W 071°24'0 0.0
2014-Jul-14 21:33N 41°48' W 071°24'0 0.0
2014-Jul-14 20:33N 41°48' W 071°24'0 0.0
2014-Jul-14 19:33N 41°48' W 071°24'0 0.0
2014-Jul-14 18:32N 41°48' W 071°24'0 0.0
2014-Jul-14 17:32N 41°48' W 071°24'0 0.0
2014-Jul-14 16:31N 41°48' W 071°24'0 0.0
2014-Jul-14 15:28N 41°48' W 071°24'0 0.0
2014-Jul-14 14:34N 41°48' W 071°24'0 0.0
2014-Jul-14 13:27N 41°48' W 071°24'0 0.0
2014-Jul-14 12:33N 41°48' W 071°24'0 0.0
2014-Jul-14 11:29N 41°48' W 071°24'0 0.0
2014-Jul-14 10:29N 41°48' W 071°24'0 0.0
2014-Jul-14 09:28N 41°48' W 071°24'0 0.0
2014-Jul-14 08:28N 41°48' W 071°24'0 0.0
2014-Jul-14 07:33N 41°48' W 071°24'0 0.0
2014-Jul-14 06:27N 41°48' W 071°24'0 0.3
2014-Jul-14 05:33N 41°48' W 071°23'8 7.8
2014-Jul-14 04:33N 41°41' W 071°19'1111.1
2014-Jul-14 03:33N 41°30' W 071°21'1111.0
2014-Jul-14 02:33N 41°19' W 071°21'1313.1
2014-Jul-14 01:33N 41°06' W 071°19'1413.6
2014-Jul-14 00:33N 40°60' W 071°03'1313.5
2014-Jul-13 23:33N 40°54' W 070°47'1313.4
2014-Jul-13 22:33N 40°48' W 070°31'1413.7
2014-Jul-13 21:33N 40°42' W 070°15'1413.7
2014-Jul-13 20:33N 40°36' W 069°59'1313.5
2014-Jul-13 19:33N 40°35' W 069°42'1313.4
2014-Jul-13 18:33N 40°35' W 069°24'1212.4
2014-Jul-13 17:33N 40°39' W 069°09'1212.4
2014-Jul-13 16:33N 40°47' W 068°57'1111.2
2014-Jul-13 15:33N 40°58' W 068°50'1110.8
2014-Jul-13 14:33N 41°08' W 068°50'10 9.7
2014-Jul-13 13:33N 41°18' W 068°49'1010.0
2014-Jul-13 12:33N 41°28' W 068°48'1010.4
2014-Jul-13 11:33N 41°38' W 068°48'9 9.1
2014-Jul-13 10:33N 41°47' W 068°44'9 9.2
2014-Jul-13 09:33N 41°55' W 068°39'10 9.8
2014-Jul-13 08:31N 42°04' W 068°32'1010.1
2014-Jul-13 07:34N 42°13' W 068°26'1010.5
2014-Jul-13 06:33N 42°22' W 068°19'11 9.9
2014-Jul-13 05:26N 42°32' W 068°12'1413.5
2014-Jul-13 04:26N 42°43' W 068°02'  

Dump ship's entire track history